Time;durP1;ratioP1;P1;durP2;ratioP2;P2;SDS_P1;SDS_P2;PMS_P1;PMS_P2;Temp;Humidity;BMP_temperature;BMP_pressure;BME280_temperature;BME280_humidity;BME280_pressure;Samples;Min_cycle;Max_cycle;Signal;HPM_P1;HPM_P2
2021/08/26 00:07:09;;;;;;;13.18;11.98;;;14.30;80.80;;;;;;4932886;29;20629;-72
2021/08/26 00:09:40;;;;;;;13.43;12.02;;;14.30;80.80;;;;;;4932233;29;20059;-73
2021/08/26 00:12:13;;;;;;;12.95;11.73;;;14.20;80.70;;;;;;4933863;29;20059;-72
2021/08/26 00:14:45;;;;;;;13.20;12.10;;;14.20;80.60;;;;;;4931156;29;20154;-73
2021/08/26 00:17:17;;;;;;;12.90;11.60;;;14.10;81.70;;;;;;4933675;29;20686;-72
2021/08/26 00:19:50;;;;;;;12.52;11.52;;;14.10;80.90;;;;;;4934963;29;20527;-72
2021/08/26 00:22:21;;;;;;;12.75;11.65;;;14.00;80.90;;;;;;4931669;29;20327;-71
2021/08/26 00:24:53;;;;;;;12.90;11.80;;;14.00;81.90;;;;;;4934362;29;20058;-71
2021/08/26 00:27:25;;;;;;;12.50;11.35;;;13.90;81.60;;;;;;4932549;29;20061;-72
2021/08/26 00:29:57;;;;;;;12.60;11.50;;;13.90;81.80;;;;;;4936235;29;20174;-72
2021/08/26 00:32:29;;;;;;;13.30;12.10;;;13.90;81.60;;;;;;4933589;29;20065;-73
2021/08/26 00:35:01;;;;;;;12.73;11.63;;;13.80;82.50;;;;;;4931755;29;20044;-73
2021/08/26 00:37:33;;;;;;;13.27;12.05;;;13.80;82.90;;;;;;4933452;29;20154;-73
2021/08/26 00:40:05;;;;;;;13.02;11.93;;;13.80;82.80;;;;;;4933360;29;20648;-72
2021/08/26 00:42:38;;;;;;;12.18;11.18;;;13.70;82.10;;;;;;4931665;29;20142;-72
2021/08/26 00:45:11;;;;;;;13.32;12.15;;;13.80;81.70;;;;;;4934907;29;20166;-73
2021/08/26 00:47:46;;;;;;;13.05;11.82;;;13.80;82.50;;;;;;4933110;29;20048;-73
2021/08/26 00:50:18;;;;;;;12.85;11.68;;;13.80;82.60;;;;;;4932770;29;20515;-73
2021/08/26 00:52:51;;;;;;;13.02;11.82;;;13.70;82.80;;;;;;4933593;29;20051;-72
2021/08/26 00:55:24;;;;;;;12.40;11.30;;;13.70;82.80;;;;;;4946225;29;20764;-72
2021/08/26 00:57:56;;;;;;;13.65;12.48;;;13.70;82.80;;;;;;4931750;29;20083;-72
2021/08/26 01:00:28;;;;;;;13.77;11.75;;;13.60;82.70;;;;;;4931019;29;20727;-73
2021/08/26 01:03:27;;;;;;;12.68;11.57;;;13.70;82.40;;;;;;4931749;29;20132;-73
2021/08/26 01:06:11;;;;;;;13.40;12.10;;;13.70;81.70;;;;;;4932631;29;20135;-71
2021/08/26 01:09:04;;;;;;;13.38;12.27;;;13.70;82.50;;;;;;4931879;29;20403;-70
2021/08/26 01:11:38;;;;;;;13.50;12.30;;;13.60;81.20;;;;;;4931429;29;20608;-71
2021/08/26 01:14:11;;;;;;;13.43;12.13;;;13.70;81.50;;;;;;4931504;29;20898;-73
2021/08/26 01:16:43;;;;;;;14.05;12.75;;;13.60;80.90;;;;;;4935000;29;20057;-72
2021/08/26 01:19:15;;;;;;;12.77;11.68;;;13.60;81.00;;;;;;4937158;29;20075;-72
2021/08/26 01:21:47;;;;;;;13.23;12.07;;;13.60;80.90;;;;;;4937748;29;20054;-73
2021/08/26 01:24:23;;;;;;;12.90;11.90;;;13.60;80.50;;;;;;4935713;29;20051;-72
2021/08/26 01:26:59;;;;;;;12.93;11.88;;;13.50;80.90;;;;;;4934287;29;20076;-72
2021/08/26 01:29:32;;;;;;;12.93;11.82;;;13.50;81.40;;;;;;4936243;29;20056;-72
2021/08/26 01:32:04;;;;;;;13.70;12.50;;;13.40;80.90;;;;;;4934757;29;20149;-72
2021/08/26 01:34:36;;;;;;;12.93;11.82;;;13.40;80.90;;;;;;4937025;29;20443;-72
2021/08/26 01:37:08;;;;;;;12.90;11.75;;;13.40;80.60;;;;;;4934683;29;20166;-72
2021/08/26 01:39:48;;;;;;;12.95;11.88;;;13.40;81.20;;;;;;4935627;29;20131;-70
2021/08/26 01:42:21;;;;;;;13.52;12.25;;;13.30;81.60;;;;;;4934230;29;20047;-72
2021/08/26 01:44:54;;;;;;;13.23;12.13;;;13.30;81.50;;;;;;4936495;29;20047;-72
2021/08/26 01:47:26;;;;;;;12.93;11.77;;;13.10;82.10;;;;;;4933905;29;20174;-72
2021/08/26 01:49:59;;;;;;;12.60;11.60;;;13.00;82.40;;;;;;4935789;29;20142;-72
2021/08/26 01:52:31;;;;;;;12.80;11.80;;;13.00;83.10;;;;;;4935843;29;20498;-73
2021/08/26 01:55:04;;;;;;;13.82;12.52;;;12.90;83.30;;;;;;4936595;29;20048;-72
2021/08/26 01:57:36;;;;;;;13.45;12.18;;;12.90;83.40;;;;;;4934584;29;20050;-72
2021/08/26 02:00:09;;;;;;;13.10;11.93;;;12.90;83.30;;;;;;4935148;29;20737;-72
2021/08/26 02:02:41;;;;;;;12.63;11.35;;;12.80;82.90;;;;;;4938861;29;20066;-72
2021/08/26 02:05:13;;;;;;;12.85;11.63;;;12.80;83.30;;;;;;4936769;29;20134;-71
2021/08/26 02:07:49;;;;;;;12.15;11.05;;;12.80;83.50;;;;;;4934403;29;20047;-71
2021/08/26 02:10:22;;;;;;;11.95;10.95;;;12.80;83.40;;;;;;4933762;29;20047;-72
2021/08/26 02:12:54;;;;;;;12.35;11.25;;;12.70;83.30;;;;;;4936301;29;20342;-70
2021/08/26 02:15:25;;;;;;;11.25;10.25;;;12.70;83.00;;;;;;4935889;29;20787;-72
2021/08/26 02:17:57;;;;;;;11.80;10.80;;;12.70;82.90;;;;;;4936159;29;20129;-71
2021/08/26 02:20:29;;;;;;;11.55;10.52;;;12.80;82.90;;;;;;4936931;29;20054;-71
2021/08/26 02:23:02;;;;;;;11.73;10.73;;;12.70;82.90;;;;;;4935466;29;20134;-71
2021/08/26 02:25:33;;;;;;;11.55;10.60;;;12.70;82.70;;;;;;4934708;29;20055;-71
2021/08/26 02:28:05;;;;;;;12.88;11.75;;;12.80;82.20;;;;;;4934377;29;20530;-71
2021/08/26 02:30:38;;;;;;;12.38;11.38;;;12.70;82.50;;;;;;4934697;29;20054;-70
2021/08/26 02:33:10;;;;;;;12.65;11.45;;;12.70;82.20;;;;;;4935863;29;20052;-71
2021/08/26 02:35:42;;;;;;;12.88;11.57;;;12.70;81.90;;;;;;4933982;29;20134;-70
2021/08/26 02:38:14;;;;;;;11.15;10.23;;;12.70;81.80;;;;;;4935460;29;20446;-71
2021/08/26 02:40:46;;;;;;;11.98;10.98;;;12.70;82.00;;;;;;4935297;29;20066;-71
2021/08/26 02:43:18;;;;;;;12.18;11.15;;;12.70;82.20;;;;;;4936401;29;20047;-71
2021/08/26 02:45:50;;;;;;;11.93;10.80;;;12.70;82.40;;;;;;4934524;29;20138;-71
2021/08/26 02:48:23;;;;;;;11.63;10.57;;;12.70;82.00;;;;;;4934943;29;20169;-72
2021/08/26 02:50:55;;;;;;;12.68;11.38;;;12.70;82.10;;;;;;4933570;29;20553;-72
2021/08/26 02:53:27;;;;;;;12.73;11.55;;;12.60;82.00;;;;;;4935045;29;20051;-71
2021/08/26 02:55:59;;;;;;;12.10;11.05;;;12.60;81.90;;;;;;4934978;29;20142;-71
2021/08/26 02:58:31;;;;;;;12.80;11.60;;;12.60;82.00;;;;;;4934858;29;20131;-72
2021/08/26 03:01:03;;;;;;;13.90;11.32;;;12.60;82.00;;;;;;4935542;29;20392;-71
2021/08/26 03:03:35;;;;;;;12.40;10.90;;;12.60;81.80;;;;;;4936284;29;20712;-72
2021/08/26 03:06:07;;;;;;;12.55;11.45;;;12.60;81.60;;;;;;4934556;29;20400;-71
2021/08/26 03:08:39;;;;;;;12.20;11.18;;;12.60;81.60;;;;;;4935793;29;20872;-72
2021/08/26 03:11:11;;;;;;;11.65;10.65;;;12.60;81.70;;;;;;4933685;29;20785;-71
2021/08/26 03:13:43;;;;;;;12.77;10.95;;;12.50;82.40;;;;;;4935223;29;20933;-72
2021/08/26 03:16:15;;;;;;;12.82;11.63;;;12.50;83.30;;;;;;4939799;29;20047;-71
2021/08/26 03:18:47;;;;;;;11.40;10.40;;;12.50;83.30;;;;;;4933688;29;20054;-72
2021/08/26 03:21:19;;;;;;;12.27;11.25;;;12.60;83.50;;;;;;4932533;29;20062;-72
2021/08/26 03:23:51;;;;;;;11.95;10.98;;;12.60;83.30;;;;;;4936395;29;20802;-72
2021/08/26 03:26:23;;;;;;;12.07;10.95;;;12.60;83.80;;;;;;4931063;29;20122;-70
2021/08/26 03:28:54;;;;;;;12.00;11.00;;;12.60;83.70;;;;;;4933869;29;20423;-71
2021/08/26 03:31:26;;;;;;;11.95;10.82;;;12.50;84.10;;;;;;4933656;29;20055;-70
2021/08/26 03:33:58;;;;;;;13.35;12.10;;;12.50;84.30;;;;;;4933550;29;20755;-70
2021/08/26 03:36:31;;;;;;;12.80;11.70;;;12.50;84.20;;;;;;4935077;29;20051;-70
2021/08/26 03:39:03;;;;;;;12.70;11.65;;;12.50;84.40;;;;;;4933802;29;20422;-71
2021/08/26 03:41:34;;;;;;;12.65;11.55;;;12.50;84.20;;;;;;4936145;29;20633;-71
2021/08/26 03:44:06;;;;;;;13.38;12.18;;;12.50;83.60;;;;;;4932795;29;20143;-71
2021/08/26 03:46:38;;;;;;;13.35;12.13;;;12.60;84.50;;;;;;4934229;29;20138;-71
2021/08/26 03:49:10;;;;;;;12.70;11.60;;;12.60;84.50;;;;;;4934386;29;20506;-71
2021/08/26 03:51:43;;;;;;;13.20;12.02;;;12.60;84.00;;;;;;4932372;29;20047;-71
2021/08/26 03:54:15;;;;;;;12.73;11.57;;;12.60;83.60;;;;;;4933497;29;20126;-71
2021/08/26 03:56:46;;;;;;;13.27;12.15;;;12.60;83.10;;;;;;4946668;29;20059;-70
2021/08/26 03:59:18;;;;;;;12.68;11.50;;;12.60;83.50;;;;;;4932232;29;20050;-71
2021/08/26 04:01:50;;;;;;;12.73;11.73;;;12.60;83.70;;;;;;4933216;29;20115;-71
2021/08/26 04:04:22;;;;;;;13.63;12.35;;;12.50;83.70;;;;;;4932794;29;20600;-70
2021/08/26 04:06:54;;;;;;;13.75;12.55;;;12.60;85.10;;;;;;4932972;29;20063;-70
2021/08/26 04:09:26;;;;;;;13.02;11.90;;;12.60;84.90;;;;;;4933435;29;20066;-71
2021/08/26 04:11:58;;;;;;;13.40;12.30;;;12.50;85.50;;;;;;4933561;29;20175;-71
2021/08/26 04:14:30;;;;;;;13.65;12.50;;;12.50;85.30;;;;;;4933326;29;20047;-71
2021/08/26 04:17:02;;;;;;;12.70;11.70;;;12.50;85.70;;;;;;4932980;29;20503;-71
2021/08/26 04:19:34;;;;;;;13.90;12.70;;;12.50;85.50;;;;;;4932509;29;20573;-70
2021/08/26 04:22:06;;;;;;;13.00;11.82;;;12.60;85.10;;;;;;4933207;29;20049;-71
2021/08/26 04:24:38;;;;;;;12.75;11.50;;;12.60;85.10;;;;;;4932700;29;20165;-71
2021/08/26 04:27:10;;;;;;;12.93;11.80;;;12.50;85.40;;;;;;4933512;29;20768;-71
2021/08/26 04:29:42;;;;;;;13.07;11.88;;;12.50;85.60;;;;;;4932898;29;20482;-71
2021/08/26 04:32:14;;;;;;;13.07;11.98;;;12.50;85.70;;;;;;4931795;29;20503;-70
2021/08/26 04:34:46;;;;;;;12.52;11.52;;;12.50;85.80;;;;;;4931669;29;20114;-71
2021/08/26 04:37:17;;;;;;;12.77;11.77;;;12.60;85.20;;;;;;4932342;29;20130;-71
2021/08/26 04:39:49;;;;;;;12.57;11.57;;;12.60;85.30;;;;;;4930800;29;20162;-71
2021/08/26 04:42:21;;;;;;;13.18;11.95;;;12.60;85.10;;;;;;4934028;29;20043;-71
2021/08/26 04:44:53;;;;;;;12.77;11.77;;;12.60;85.40;;;;;;4932384;29;20070;-71
2021/08/26 04:47:25;;;;;;;12.63;11.52;;;12.70;84.90;;;;;;4929728;29;20059;-71
2021/08/26 04:49:57;;;;;;;12.85;11.75;;;12.60;84.80;;;;;;4935359;29;20048;-71
2021/08/26 04:52:29;;;;;;;13.07;11.73;;;12.60;84.60;;;;;;4938355;29;20054;-71
2021/08/26 04:55:01;;;;;;;12.00;10.98;;;12.60;84.70;;;;;;4935811;29;20083;-72
2021/08/26 04:57:33;;;;;;;12.27;11.18;;;12.60;84.50;;;;;;4937723;29;20177;-72
2021/08/26 05:00:06;;;;;;;12.07;11.07;;;12.60;84.50;;;;;;4936613;29;20039;-71
2021/08/26 05:02:38;;;;;;;12.27;11.27;;;12.60;83.90;;;;;;4934830;29;20060;-71
2021/08/26 05:05:10;;;;;;;11.93;10.93;;;12.70;83.90;;;;;;4935883;29;20586;-71
2021/08/26 05:07:42;;;;;;;12.55;11.55;;;12.70;83.80;;;;;;4936128;29;20155;-71
2021/08/26 05:10:14;;;;;;;11.85;10.95;;;12.70;83.70;;;;;;4932332;29;20596;-70
2021/08/26 05:12:46;;;;;;;12.20;11.18;;;12.80;83.70;;;;;;4936540;29;20079;-71
2021/08/26 05:15:18;;;;;;;12.82;11.73;;;12.80;83.90;;;;;;4934056;29;20395;-71
2021/08/26 05:17:52;;;;;;;11.80;10.80;;;12.80;83.90;;;;;;4936024;29;20085;-72
2021/08/26 05:20:24;;;;;;;12.80;11.80;;;12.90;84.10;;;;;;4935465;29;20126;-72
2021/08/26 05:22:57;;;;;;;13.00;12.00;;;13.00;83.90;;;;;;4935163;29;20118;-71
2021/08/26 05:25:29;;;;;;;15.70;14.02;;;13.00;83.40;;;;;;4934763;29;20162;-70
2021/08/26 05:28:01;;;;;;;12.73;11.60;;;13.00;84.00;;;;;;4935641;29;20127;-71
2021/08/26 05:30:36;;;;;;;12.73;11.63;;;13.10;83.80;;;;;;4933484;29;20138;-70
2021/08/26 05:33:09;;;;;;;12.60;11.60;;;13.20;83.60;;;;;;4931538;29;20055;-69
2021/08/26 05:35:41;;;;;;;12.55;11.45;;;13.30;83.60;;;;;;4932179;29;20083;-70
2021/08/26 05:38:13;;;;;;;12.65;11.60;;;13.50;83.20;;;;;;4932849;29;20487;-72
2021/08/26 05:40:45;;;;;;;15.73;13.50;;;13.60;82.80;;;;;;4931679;29;20063;-71
2021/08/26 05:43:17;;;;;;;13.77;12.48;;;13.70;82.80;;;;;;4933030;29;20059;-71
2021/08/26 05:45:49;;;;;;;14.68;12.20;;;13.80;83.50;;;;;;4930140;29;20055;-71
2021/08/26 05:48:21;;;;;;;13.68;12.50;;;13.80;83.90;;;;;;4934683;29;20057;-70
2021/08/26 05:50:53;;;;;;;13.52;12.32;;;13.90;83.70;;;;;;4933471;29;20166;-70
2021/08/26 05:53:25;;;;;;;13.73;12.63;;;13.80;83.90;;;;;;4933513;29;20550;-70
2021/08/26 05:55:57;;;;;;;13.10;11.95;;;13.80;83.50;;;;;;4939154;29;20481;-70
2021/08/26 05:58:29;;;;;;;13.18;12.07;;;13.80;83.40;;;;;;4939507;29;20147;-70
2021/08/26 06:01:01;;;;;;;12.55;11.55;;;13.90;83.20;;;;;;4932719;29;20154;-70
2021/08/26 06:03:34;;;;;;;12.07;11.07;;;13.90;83.70;;;;;;4931502;29;20051;-71
2021/08/26 06:06:07;;;;;;;12.00;11.00;;;13.90;83.80;;;;;;4932276;29;21437;-70
2021/08/26 06:08:38;;;;;;;12.48;11.45;;;14.00;84.50;;;;;;4936181;29;20790;-72
2021/08/26 06:11:10;;;;;;;1171.82;223.32;;;14.00;83.70;;;;;;4935561;29;20134;-72
2021/08/26 06:13:42;;;;;;;16.20;13.45;;;14.10;84.80;;;;;;4936684;29;20511;-71
2021/08/26 06:16:14;;;;;;;22.98;13.20;;;14.10;84.90;;;;;;4930846;29;20129;-71
2021/08/26 06:18:46;;;;;;;16.40;14.80;;;14.10;85.30;;;;;;4936772;29;20907;-71
2021/08/26 06:21:18;;;;;;;14.30;13.10;;;14.20;85.50;;;;;;4932101;29;20524;-71
2021/08/26 06:23:50;;;;;;;14.98;12.40;;;14.20;84.70;;;;;;4935632;29;20105;-71
2021/08/26 06:26:22;;;;;;;13.02;11.68;;;14.30;84.60;;;;;;4932035;29;20055;-71
2021/08/26 06:28:54;;;;;;;12.43;11.32;;;14.40;84.70;;;;;;4933036;29;20160;-71
2021/08/26 06:31:26;;;;;;;13.50;12.20;;;14.40;84.70;;;;;;4933666;29;20148;-72
2021/08/26 06:33:58;;;;;;;14.50;13.07;;;14.50;84.60;;;;;;4933490;29;20051;-71
2021/08/26 06:36:30;;;;;;;13.48;12.38;;;14.50;84.50;;;;;;4931345;29;20554;-71
2021/08/26 06:39:01;;;;;;;15.13;12.40;;;14.60;83.70;;;;;;4933925;29;20050;-72
2021/08/26 06:41:33;;;;;;;14.00;12.80;;;14.70;83.60;;;;;;4932713;29;20078;-71
2021/08/26 06:44:05;;;;;;;12.25;11.25;;;14.70;82.40;;;;;;4932848;29;20694;-71
2021/08/26 06:46:37;;;;;;;13.45;12.40;;;14.80;83.10;;;;;;4934150;29;20071;-70
2021/08/26 06:49:09;;;;;;;12.77;11.77;;;14.80;82.20;;;;;;4934707;29;20127;-70
2021/08/26 06:51:41;;;;;;;12.63;11.48;;;14.90;82.30;;;;;;4934036;29;20054;-69
2021/08/26 06:54:13;;;;;;;12.95;11.77;;;14.90;80.60;;;;;;4934797;29;20705;-69
2021/08/26 06:56:44;;;;;;;12.73;11.63;;;15.00;81.60;;;;;;4932681;29;20171;-70
2021/08/26 06:59:16;;;;;;;13.25;12.18;;;15.00;79.80;;;;;;4935319;29;20054;-69
2021/08/26 07:01:48;;;;;;;13.45;12.25;;;15.10;80.10;;;;;;4933404;29;20067;-70
2021/08/26 07:04:20;;;;;;;13.85;12.65;;;15.10;80.40;;;;;;4936109;29;20625;-70
2021/08/26 07:06:53;;;;;;;13.50;12.38;;;15.30;79.90;;;;;;4932834;29;20139;-70
2021/08/26 07:09:25;;;;;;;13.55;12.38;;;15.60;79.60;;;;;;4934752;29;20133;-71
2021/08/26 07:11:57;;;;;;;13.90;12.80;;;15.80;78.70;;;;;;4931848;29;20598;-70
2021/08/26 07:14:29;;;;;;;13.38;12.18;;;15.90;77.10;;;;;;4933872;29;20482;-71
2021/08/26 07:17:00;;;;;;;14.10;13.00;;;16.10;76.60;;;;;;4930593;29;20079;-71
2021/08/26 07:19:32;;;;;;;13.98;12.77;;;16.30;77.90;;;;;;4934845;29;20788;-71
2021/08/26 07:22:04;;;;;;;13.98;12.88;;;16.50;76.50;;;;;;4935871;29;20039;-70
2021/08/26 07:24:36;;;;;;;24.70;13.80;;;16.50;77.90;;;;;;4933451;29;20158;-70
2021/08/26 07:27:09;;;;;;;14.02;12.93;;;16.70;76.60;;;;;;4930181;29;20048;-69
2021/08/26 07:29:41;;;;;;;15.73;14.43;;;16.80;75.80;;;;;;4934828;29;20533;-70
2021/08/26 07:32:13;;;;;;;14.57;13.27;;;17.10;75.80;;;;;;4935274;29;20063;-71
2021/08/26 07:34:45;;;;;;;15.80;14.55;;;17.20;75.60;;;;;;4932986;29;20539;-71
2021/08/26 07:37:17;;;;;;;14.10;13.00;;;17.30;77.00;;;;;;4931865;29;20554;-70
2021/08/26 07:39:49;;;;;;;15.30;14.00;;;17.40;76.00;;;;;;4933998;29;20065;-71
2021/08/26 07:42:21;;;;;;;15.05;13.75;;;17.40;75.20;;;;;;4933554;29;20525;-70
2021/08/26 07:44:52;;;;;;;14.65;13.52;;;17.30;74.90;;;;;;4934354;29;20396;-69
2021/08/26 07:47:24;;;;;;;16.10;14.55;;;17.30;76.80;;;;;;4931715;29;20127;-70
2021/08/26 07:49:57;;;;;;;15.32;14.02;;;17.30;75.90;;;;;;4932208;29;20460;-69
2021/08/26 07:52:29;;;;;;;14.13;12.68;;;17.40;76.80;;;;;;4935224;29;20534;-69
2021/08/26 07:55:03;;;;;;;15.02;13.70;;;17.40;76.70;;;;;;4933106;29;20495;-70
2021/08/26 07:57:34;;;;;;;14.85;13.65;;;17.40;77.80;;;;;;4930571;29;20682;-70
2021/08/26 08:00:10;;;;;;;14.43;13.23;;;17.30;76.40;;;;;;4916405;29;20067;-68
2021/08/26 08:02:42;;;;;;;14.45;13.13;;;17.30;76.60;;;;;;4935390;29;20051;-70
2021/08/26 08:05:14;;;;;;;14.55;13.35;;;17.30;77.30;;;;;;4932755;29;20055;-70
2021/08/26 08:07:46;;;;;;;14.60;13.30;;;17.30;77.80;;;;;;4932232;29;20783;-69
2021/08/26 08:10:18;;;;;;;15.13;13.93;;;17.30;78.40;;;;;;4932950;29;20048;-70
2021/08/26 08:12:50;;;;;;;15.35;14.05;;;17.30;78.70;;;;;;4934127;29;20051;-70
2021/08/26 08:15:22;;;;;;;15.73;14.52;;;17.30;76.80;;;;;;4932864;29;20836;-69
2021/08/26 08:17:54;;;;;;;15.52;14.27;;;17.30;77.10;;;;;;4933276;29;20134;-70
2021/08/26 08:20:26;;;;;;;191.75;27.00;;;17.30;78.30;;;;;;4931179;29;20083;-70
2021/08/26 08:22:58;;;;;;;20.27;18.42;;;17.30;77.40;;;;;;4934133;29;20528;-70
2021/08/26 08:25:30;;;;;;;18.27;16.67;;;17.40;78.30;;;;;;4933846;29;20059;-70
2021/08/26 08:28:02;;;;;;;19.52;17.75;;;17.50;77.00;;;;;;4936097;29;20464;-70
2021/08/26 08:30:36;;;;;;;16.27;14.75;;;17.50;75.70;;;;;;4937474;29;20102;-70
2021/08/26 08:33:10;;;;;;;15.40;14.10;;;17.70;73.50;;;;;;4936439;29;20071;-69
2021/08/26 08:35:42;;;;;;;17.15;15.77;;;17.90;75.70;;;;;;4936033;29;20540;-70
2021/08/26 08:38:13;;;;;;;22.52;20.33;;;18.20;74.60;;;;;;4936845;29;20846;-70
2021/08/26 08:40:46;;;;;;;19.48;17.65;;;18.40;74.60;;;;;;4934610;29;20071;-71
2021/08/26 08:43:18;;;;;;;24.08;17.85;;;18.50;75.00;;;;;;4936201;29;20163;-70
2021/08/26 08:45:52;;;;;;;16.90;15.30;;;18.80;75.00;;;;;;4936080;29;20138;-70
2021/08/26 08:48:27;;;;;;;16.52;15.23;;;18.70;74.70;;;;;;4937634;29;20055;-70
2021/08/26 08:50:59;;;;;;;16.33;14.93;;;18.70;74.70;;;;;;4936208;29;20055;-70
2021/08/26 08:53:31;;;;;;;15.82;14.45;;;18.70;73.60;;;;;;4935251;29;20047;-70
2021/08/26 08:56:06;;;;;;;15.82;14.32;;;18.70;69.60;;;;;;4936856;29;20090;-71
2021/08/26 08:58:40;;;;;;;15.93;14.35;;;18.70;71.60;;;;;;4937082;29;20135;-69
2021/08/26 09:01:15;;;;;;;15.45;14.25;;;18.60;72.10;;;;;;4935368;29;20051;-70
2021/08/26 09:03:48;;;;;;;15.93;14.60;;;18.70;73.00;;;;;;4935610;29;20209;-71
2021/08/26 09:06:19;;;;;;;15.98;14.70;;;18.70;68.70;;;;;;4934547;29;20661;-70
2021/08/26 09:09:05;;;;;;;17.23;15.30;;;18.70;69.90;;;;;;4935946;29;20701;-70
2021/08/26 09:11:47;;;;;;;16.80;15.43;;;18.90;70.30;;;;;;4935832;29;20144;-70
2021/08/26 09:14:23;;;;;;;18.73;17.13;;;19.00;68.50;;;;;;4936073;29;20134;-70
2021/08/26 09:16:57;;;;;;;15.98;14.77;;;19.00;67.40;;;;;;4934358;29;20126;-70
2021/08/26 09:19:31;;;;;;;16.13;14.82;;;19.20;70.70;;;;;;4934133;29;20151;-69
2021/08/26 09:22:06;;;;;;;15.35;14.10;;;19.30;72.70;;;;;;4935828;29;20236;-71
2021/08/26 09:24:48;;;;;;;15.93;14.63;;;19.40;72.40;;;;;;4947998;29;20083;-70
2021/08/26 09:27:32;;;;;;;16.20;14.77;;;19.40;70.20;;;;;;4934752;29;20592;-70
2021/08/26 09:30:09;;;;;;;16.15;14.95;;;19.50;71.50;;;;;;4937879;29;20799;-70
2021/08/26 09:32:47;;;;;;;16.40;15.10;;;19.50;68.80;;;;;;4935368;29;20142;-70
2021/08/26 09:35:21;;;;;;;364.60;54.47;;;19.50;67.40;;;;;;4934850;29;20062;-71
2021/08/26 09:38:01;;;;;;;16.60;15.00;;;19.50;68.80;;;;;;4934979;29;20550;-72
2021/08/26 09:40:46;;;;;;;15.13;13.93;;;19.40;66.80;;;;;;4934995;29;20123;-72
2021/08/26 09:43:31;;;;;;;15.75;14.45;;;19.50;68.50;;;;;;4935927;29;20146;-71
2021/08/26 09:46:03;;;;;;;15.00;13.90;;;19.50;68.90;;;;;;4933999;29;20052;-72
2021/08/26 09:48:35;;;;;;;17.15;15.40;;;19.60;69.40;;;;;;4934626;29;20134;-70
2021/08/26 09:51:13;;;;;;;16.35;15.05;;;19.70;68.70;;;;;;4935214;29;20490;-72
2021/08/26 09:53:45;;;;;;;16.13;14.73;;;19.60;64.20;;;;;;4935286;29;20054;-71
2021/08/26 09:56:17;;;;;;;16.92;15.43;;;19.60;65.70;;;;;;4934581;29;20043;-72
2021/08/26 09:58:54;;;;;;;16.38;15.18;;;19.60;63.50;;;;;;4936631;29;20047;-71
2021/08/26 10:01:25;;;;;;;16.08;14.88;;;19.60;66.00;;;;;;4932906;29;20591;-71
2021/08/26 10:03:58;;;;;;;16.45;15.25;;;19.60;63.10;;;;;;4935090;29;20059;-72
2021/08/26 10:06:31;;;;;;;16.13;14.93;;;19.50;65.90;;;;;;4935229;29;20174;-72
2021/08/26 10:09:03;;;;;;;15.85;14.75;;;19.60;65.00;;;;;;4936686;29;20048;-72
2021/08/26 10:11:34;;;;;;;16.35;14.95;;;19.60;64.10;;;;;;4935323;29;20512;-72
2021/08/26 10:14:06;;;;;;;15.57;14.40;;;19.70;65.10;;;;;;4936202;29;20498;-71
2021/08/26 10:16:39;;;;;;;16.15;14.88;;;19.70;62.20;;;;;;4935863;29;20099;-71
2021/08/26 10:19:15;;;;;;;15.75;14.55;;;19.80;65.40;;;;;;4935221;29;20552;-71
2021/08/26 10:21:47;;;;;;;16.10;14.80;;;19.80;65.60;;;;;;4937530;29;20051;-72
2021/08/26 10:24:20;;;;;;;15.93;14.80;;;19.90;65.60;;;;;;4935253;29;20126;-71
2021/08/26 10:27:00;;;;;;;16.70;15.40;;;20.00;66.90;;;;;;4932214;29;20522;-71
2021/08/26 10:29:35;;;;;;;16.10;14.90;;;20.10;66.20;;;;;;4936482;29;20597;-71
2021/08/26 10:32:07;;;;;;;16.88;15.57;;;20.10;65.80;;;;;;4933998;29;20109;-71
2021/08/26 10:34:38;;;;;;;17.17;15.85;;;20.10;66.00;;;;;;4935314;29;20057;-71
2021/08/26 10:37:20;;;;;;;17.13;15.82;;;20.20;67.60;;;;;;4935275;29;20075;-71
2021/08/26 10:39:52;;;;;;;16.63;15.25;;;20.30;66.90;;;;;;4935634;29;20131;-70
2021/08/26 10:42:28;;;;;;;16.55;15.30;;;20.40;67.30;;;;;;4936153;29;20050;-72
2021/08/26 10:45:07;;;;;;;16.60;15.30;;;20.50;67.70;;;;;;4934673;29;20481;-70
2021/08/26 10:47:49;;;;;;;16.73;15.52;;;20.50;68.30;;;;;;4934386;29;20146;-72
2021/08/26 10:50:22;;;;;;;16.63;15.32;;;20.60;65.60;;;;;;4935637;29;20514;-72
2021/08/26 10:52:55;;;;;;;16.13;14.93;;;20.70;66.30;;;;;;4934573;29;20059;-71
2021/08/26 10:55:42;;;;;;;16.17;14.98;;;20.80;64.90;;;;;;4935125;29;20047;-71
2021/08/26 10:58:16;;;;;;;16.48;15.18;;;20.80;66.40;;;;;;4935966;29;20119;-71
2021/08/26 11:01:02;;;;;;;16.50;15.20;;;20.80;63.50;;;;;;4935611;29;20660;-72
2021/08/26 11:03:35;;;;;;;19.30;15.27;;;20.70;64.80;;;;;;4935453;29;20047;-71
2021/08/26 11:06:14;;;;;;;16.30;15.10;;;20.70;62.00;;;;;;4934391;29;20842;-71
2021/08/26 11:08:58;;;;;;;16.55;15.07;;;20.50;61.50;;;;;;4935343;29;20164;-71
2021/08/26 11:11:30;;;;;;;16.40;15.10;;;20.50;62.20;;;;;;4935438;29;20143;-72
2021/08/26 11:14:02;;;;;;;16.33;14.95;;;20.70;66.20;;;;;;4934425;29;20066;-72
2021/08/26 11:16:43;;;;;;;27.48;16.35;;;20.80;66.20;;;;;;4933309;29;20140;-71
2021/08/26 11:19:19;;;;;;;15.77;14.48;;;20.80;64.00;;;;;;4934031;29;20063;-72
2021/08/26 11:21:51;;;;;;;16.38;15.07;;;20.70;60.70;;;;;;4932264;29;20233;-72
2021/08/26 11:24:23;;;;;;;16.08;14.88;;;20.70;62.10;;;;;;4933664;29;20132;-72
2021/08/26 11:26:55;;;;;;;15.70;14.50;;;20.50;60.40;;;;;;4930057;29;20055;-72
2021/08/26 11:29:28;;;;;;;16.02;14.82;;;20.40;59.70;;;;;;4931809;29;20069;-72
2021/08/26 11:32:03;;;;;;;16.38;15.05;;;20.30;59.40;;;;;;4934129;29;20051;-72
2021/08/26 11:34:44;;;;;;;15.70;14.50;;;20.20;62.60;;;;;;4933397;29;20104;-70
2021/08/26 11:37:21;;;;;;;16.55;15.25;;;20.10;61.00;;;;;;4932191;29;20050;-70
2021/08/26 11:39:55;;;;;;;17.27;15.77;;;20.00;64.00;;;;;;4933952;29;20157;-71
2021/08/26 11:42:30;;;;;;;20.60;17.05;;;20.00;65.50;;;;;;4934593;29;20101;-70
2021/08/26 11:45:16;;;;;;;58.10;21.85;;;20.00;66.60;;;;;;4932711;29;20475;-70
2021/08/26 11:47:55;;;;;;;17.55;16.15;;;20.00;66.40;;;;;;4932619;29;20493;-71
2021/08/26 11:50:39;;;;;;;17.23;15.82;;;20.10;67.90;;;;;;4932816;29;20057;-71
2021/08/26 11:53:12;;;;;;;16.70;15.40;;;20.20;68.40;;;;;;4933731;29;20051;-72
2021/08/26 11:55:50;;;;;;;15.77;14.57;;;20.20;65.80;;;;;;4932497;29;20062;-72
2021/08/26 11:58:22;;;;;;;16.67;15.05;;;20.10;68.40;;;;;;4933173;29;20062;-70
2021/08/26 12:00:54;;;;;;;16.33;14.85;;;20.20;69.00;;;;;;4932605;29;20044;-72
2021/08/26 12:03:27;;;;;;;15.98;14.77;;;20.10;67.60;;;;;;4932479;29;20058;-71
2021/08/26 12:06:07;;;;;;;40.92;18.35;;;20.10;68.20;;;;;;4934929;29;20046;-69
2021/08/26 12:08:49;;;;;;;179.93;32.70;;;20.10;67.80;;;;;;4932377;29;20425;-71
2021/08/26 12:11:26;;;;;;;17.67;15.95;;;20.20;67.90;;;;;;4940540;29;20588;-71
2021/08/26 12:14:00;;;;;;;16.83;15.52;;;20.20;65.80;;;;;;4933495;29;20051;-71
2021/08/26 12:16:32;;;;;;;16.67;15.18;;;20.20;66.50;;;;;;4933006;29;20598;-69
2021/08/26 12:19:04;;;;;;;17.00;15.40;;;20.10;67.00;;;;;;4931725;29;20051;-71
2021/08/26 12:21:36;;;;;;;16.88;15.20;;;20.10;67.30;;;;;;4934047;29;20596;-71
2021/08/26 12:24:08;;;;;;;17.48;15.27;;;20.10;66.90;;;;;;4932887;29;20486;-72
2021/08/26 12:26:41;;;;;;;17.83;15.18;;;20.00;66.70;;;;;;4933357;29;20142;-74
2021/08/26 12:29:13;;;;;;;15.85;14.60;;;20.00;66.40;;;;;;4930717;29;20553;-72
2021/08/26 12:31:47;;;;;;;16.30;14.88;;;20.00;66.60;;;;;;4930981;29;20143;-72
2021/08/26 12:34:27;;;;;;;16.25;14.95;;;20.00;66.70;;;;;;4931291;29;20499;-71
2021/08/26 12:37:03;;;;;;;;;;;20.00;66.50;;;;;;4931674;29;20055;-71
2021/08/26 12:39:35;;;;;;;54.63;19.45;;;20.00;66.90;;;;;;4934029;29;19929;-72
2021/08/26 12:42:15;;;;;;;332.88;59.90;;;19.90;66.10;;;;;;4935538;29;20051;-72
2021/08/26 12:44:47;;;;;;;696.95;83.45;;;19.80;65.60;;;;;;4933560;29;20516;-73
2021/08/26 12:47:30;;;;;;;1999.90;726.13;;;19.70;64.90;;;;;;4929892;29;20147;-71
2021/08/26 12:50:02;;;;;;;133.95;29.50;;;19.70;66.20;;;;;;4933039;29;20112;-72
2021/08/26 12:52:38;;;;;;;1999.90;411.95;;;19.60;65.70;;;;;;4939315;29;20075;-72
2021/08/26 12:55:10;;;;;;;1041.47;134.35;;;19.60;65.60;;;;;;4932213;29;20066;-71
2021/08/26 12:57:42;;;;;;;50.95;19.33;;;19.60;67.40;;;;;;4929115;29;20190;-72
2021/08/26 13:00:38;;;;;;;27.27;16.98;;;19.50;65.80;;;;;;4931902;29;20459;-71
2021/08/26 13:03:10;;;;;;;20.08;15.82;;;19.50;66.30;;;;;;4934861;29;20110;-71